Time;durP1;ratioP1;P1;durP2;ratioP2;P2;SDS_P1;SDS_P2;PMS_P1;PMS_P2;Temp;Humidity;BMP_temperature;BMP_pressure;BME280_temperature;BME280_humidity;BME280_pressure;Samples;Min_cycle;Max_cycle;Signal;HPM_P1;HPM_P2
2023/11/26 00:09:06;;;;;;;14.20;7.50;;;;;;;-0.68;93.86;97258.84;436468;1251;110682;-39
2023/11/26 00:19:13;;;;;;;17.90;8.70;;;;;;;-0.63;94.02;97265.25;436334;1248;108189;-43
2023/11/26 00:29:20;;;;;;;12.90;7.80;;;;;;;-0.57;94.18;97275.39;436454;1247;97906;-39
2023/11/26 00:39:28;;;;;;;19.60;10.70;;;;;;;-0.55;94.30;97290.44;436546;1247;109239;-39
2023/11/26 00:49:34;;;;;;;19.10;9.90;;;;;;;-0.63;94.17;97296.84;436080;1247;551571;-40
2023/11/26 00:59:40;;;;;;;14.20;9.00;;;;;;;-0.64;94.30;97307.07;436567;1248;97887;-39
2023/11/26 01:09:47;;;;;;;16.80;9.60;;;;;;;-0.64;94.38;97311.49;436340;1247;108431;-38
2023/11/26 01:30:00;;;;;;;21.30;11.80;;;;;;;-0.69;94.54;97320.34;436743;1251;110352;-39
2023/11/26 01:50:15;;;;;;;24.70;10.80;;;;;;;-0.81;94.57;97336.24;436780;1251;97811;-39
2023/11/26 02:00:22;;;;;;;16.90;9.70;;;;;;;-0.84;94.84;97343.06;436555;1251;110102;-39
2023/11/26 02:10:30;;;;;;;16.50;10.60;;;;;;;-0.86;94.75;97352.20;436608;1251;108279;-39
2023/11/26 02:20:36;;;;;;;26.20;14.00;;;;;;;-0.89;94.87;97354.88;438409;1244;96649;-39
2023/11/26 02:30:43;;;;;;;14.90;9.40;;;;;;;-1.06;94.91;97365.32;437643;1248;109722;-40
2023/11/26 02:40:50;;;;;;;13.70;8.50;;;;;;;-1.14;94.77;97373.84;437514;1250;108475;-40
2023/11/26 02:50:58;;;;;;;18.10;10.00;;;;;;;-1.17;94.80;97378.20;437707;1250;96558;-40
2023/11/26 03:01:05;;;;;;;19.20;11.30;;;;;;;-1.27;94.93;97393.27;437715;1248;109987;-40
2023/11/26 03:21:36;;;;;;;15.50;9.50;;;;;;;-1.42;94.53;97415.45;437599;1246;97855;-39
2023/11/26 03:31:44;;;;;;;12.20;8.70;;;;;;;-1.36;94.58;97427.81;437440;1250;111667;-40
2023/11/26 03:41:51;;;;;;;17.70;11.60;;;;;;;-1.44;94.63;97426.55;437604;1247;107296;-39
2023/11/26 03:51:59;;;;;;;21.00;11.30;;;;;;;-1.51;94.74;97441.23;437551;1248;97836;-39
2023/11/26 04:02:04;;;;;;;17.20;11.80;;;;;;;-1.44;94.69;97445.42;437629;1248;110818;-40
2023/11/26 04:12:12;;;;;;;16.10;10.90;;;;;;;-1.36;94.65;97452.95;437510;1247;108010;-40
2023/11/26 04:22:20;;;;;;;15.50;10.40;;;;;;;-1.33;94.68;97462.04;437712;1248;97480;-40
2023/11/26 04:32:27;;;;;;;25.60;15.20;;;;;;;-1.33;94.71;97472.08;437496;1250;108704;-39
2023/11/26 04:42:34;;;;;;;21.90;12.10;;;;;;;-1.44;94.69;97487.55;437601;1248;97868;-40
2023/11/26 04:52:40;;;;;;;10.20;7.90;;;;;;;-1.41;94.62;97500.04;437628;1246;97874;-40
2023/11/26 05:02:47;;;;;;;12.40;7.90;;;;;;;-1.45;94.62;97509.34;437524;1250;107205;-39
2023/11/26 05:12:54;;;;;;;13.00;9.10;;;;;;;-1.54;94.54;97525.75;437625;1248;97877;-39
2023/11/26 05:23:01;;;;;;;13.90;7.80;;;;;;;-1.63;94.48;97536.33;437576;1250;97861;-39
2023/11/26 05:33:08;;;;;;;12.10;8.50;;;;;;;-1.70;94.14;97550.94;437575;1250;110212;-39
2023/11/26 05:43:15;;;;;;;12.00;6.30;;;;;;;-1.74;94.24;97571.52;437386;1248;107919;-38
2023/11/26 05:53:21;;;;;;;15.80;9.10;;;;;;;-1.78;94.21;97590.29;437694;1250;98014;-38
2023/11/26 06:03:29;;;;;;;17.70;9.60;;;;;;;-1.97;94.06;97604.06;437543;1250;110558;-39
2023/11/26 06:13:36;;;;;;;18.20;8.90;;;;;;;-2.11;93.85;97634.14;437646;1250;108574;-39
2023/11/26 06:23:43;;;;;;;15.30;9.80;;;;;;;-2.17;93.64;97652.70;437575;1251;96629;-39
2023/11/26 06:33:49;;;;;;;16.40;10.10;;;;;;;-2.18;93.67;97661.30;437353;1250;110676;-39
2023/11/26 06:54:03;;;;;;;19.10;10.00;;;;;;;-2.52;93.51;97671.71;437657;1250;97566;-40
2023/11/26 07:14:17;;;;;;;10.40;6.40;;;;;;;-2.20;93.64;97685.77;437562;1250;107779;-39
2023/11/26 07:24:25;;;;;;;23.50;13.10;;;;;;;-1.95;93.56;97685.45;437357;1250;97928;-38
2023/11/26 07:34:30;;;;;;;17.00;8.90;;;;;;;-1.87;93.32;97702.49;437558;1250;111576;-39
2023/11/26 07:44:38;;;;;;;8.60;5.60;;;;;;;-1.57;93.49;97714.77;437499;1248;108566;-40
2023/11/26 07:54:45;;;;;;;11.40;6.80;;;;;;;-0.08;93.43;97720.86;437565;1250;97874;-40
2023/11/26 08:15:03;;;;;;;12.70;8.40;;;;;;;-1.07;91.09;97751.21;437735;1250;106800;-40
2023/11/26 08:25:12;;;;;;;10.60;5.80;;;;;;;-1.22;91.13;97756.65;437493;1248;96973;-40
2023/11/26 08:35:19;;;;;;;24.50;12.70;;;;;;;-0.73;91.74;97761.48;437508;1250;110357;-39
2023/11/26 08:45:26;;;;;;;16.10;9.30;;;;;;;-0.36;90.96;97763.48;437580;1247;107531;-40
2023/11/26 09:05:39;;;;;;;11.90;6.80;;;;;;;-0.23;89.08;97766.35;437653;1250;97890;-40
2023/11/26 09:15:46;;;;;;;18.20;9.30;;;;;;;-0.28;88.03;97769.33;437272;1250;109748;-40
2023/11/26 09:25:54;;;;;;;10.20;6.40;;;;;;;-0.57;87.19;97770.61;437476;1252;108611;-39
2023/11/26 09:36:03;;;;;;;11.10;5.10;;;;;;;-0.39;86.95;97765.53;437416;1250;97855;-38
2023/11/26 09:46:09;;;;;;;;;;;;;;;-0.27;86.46;97771.58;437440;1250;107714;-40
2023/11/26 09:56:17;;;;;;;7.50;4.50;;;;;;;-0.56;85.48;97790.55;437439;1260;97306;-39
2023/11/26 10:06:24;;;;;;;6.30;3.70;;;;;;;-0.80;84.87;97797.09;437644;1251;97876;-41
2023/11/26 10:16:32;;;;;;;16.70;7.20;;;;;;;-0.86;84.84;97801.71;437453;1250;108767;-40
2023/11/26 10:26:40;;;;;;;9.20;5.60;;;;;;;-0.78;84.87;97805.78;437517;1250;97864;-40
2023/11/26 10:36:46;;;;;;;13.50;6.90;;;;;;;-0.67;84.73;97813.02;437458;1250;96639;-42
2023/11/26 10:46:59;;;;;;;14.30;8.40;;;;;;;-0.56;84.33;97818.96;437384;1250;108553;-38
2023/11/26 11:07:15;;;;;;;14.60;8.20;;;;;;;-0.30;83.42;97821.50;437464;1250;96615;-39
2023/11/26 11:17:34;;;;;;;14.40;7.30;;;;;;;-0.41;83.49;97826.60;437417;1248;108670;-39
2023/11/26 11:38:09;;;;;;;14.50;7.40;;;;;;;-0.19;82.88;97854.50;437426;1251;109909;-40
2023/11/26 11:48:34;;;;;;;16.80;7.90;;;;;;;-0.41;82.74;97860.81;437575;1260;108207;-40
2023/11/26 11:58:42;;;;;;;13.50;7.20;;;;;;;-0.46;82.94;97868.23;437530;1250;97861;-41
2023/11/26 12:08:55;;;;;;;11.60;6.00;;;;;;;-0.54;82.37;97888.24;437437;1251;110173;-39
2023/11/26 12:19:00;;;;;;;15.00;6.80;;;;;;;-0.70;82.56;97893.69;437360;1260;107084;-39
2023/11/26 12:29:07;;;;;;;13.30;7.00;;;;;;;-0.73;82.81;97897.39;437460;1251;96647;-39
2023/11/26 12:39:15;;;;;;;9.60;5.40;;;;;;;-0.69;82.90;97906.04;437418;1248;110590;-38
2023/11/26 12:49:22;;;;;;;10.10;5.50;;;;;;;-0.60;82.70;97896.52;437257;1248;364825;-39
2023/11/26 12:59:29;;;;;;;14.40;7.10;;;;;;;-0.65;82.73;97902.12;437545;1250;97812;-39
2023/11/26 13:19:54;;;;;;;10.30;6.10;;;;;;;-0.78;82.65;97915.32;436787;1248;107715;-39
2023/11/26 13:30:02;;;;;;;10.30;6.40;;;;;;;-0.84;82.96;97923.61;436828;1251;96651;-39
2023/11/26 13:40:12;;;;;;;12.20;7.00;;;;;;;-1.00;83.01;97934.64;436862;1251;109987;-38
2023/11/26 13:50:19;;;;;;;14.10;7.80;;;;;;;-1.04;83.34;97936.64;436703;1247;107898;-40
2023/11/26 14:20:38;;;;;;;15.50;5.80;;;;;;;-1.27;83.58;97935.07;436634;1251;109428;-40
2023/11/26 14:30:44;;;;;;;6.90;4.00;;;;;;;-1.34;83.31;97936.27;436818;1247;97011;-39
2023/11/26 15:01:04;;;;;;;14.40;9.50;;;;;;;-1.53;83.85;97937.52;436705;1251;97467;-40
2023/11/26 15:21:17;;;;;;;15.00;8.90;;;;;;;-1.57;84.11;97934.48;436775;1252;108294;-39
2023/11/26 15:41:31;;;;;;;36.10;13.40;;;;;;;-2.04;84.03;97938.45;436658;1251;96889;-40
2023/11/26 15:51:40;;;;;;;20.40;9.80;;;;;;;-2.13;84.02;97946.70;436797;1247;109614;-40
2023/11/26 16:01:48;;;;;;;19.10;11.30;;;;;;;-2.08;84.16;97958.27;436566;1247;107474;-39
2023/11/26 16:11:55;;;;;;;30.60;14.30;;;;;;;-2.14;84.36;97961.16;436562;1248;97361;-39
2023/11/26 16:32:10;;;;;;;46.60;23.00;;;;;;;-2.38;84.40;97971.63;436373;1251;107600;-39
2023/11/26 16:42:18;;;;;;;38.60;17.30;;;;;;;-2.48;84.50;97976.16;436596;1247;96626;-39
2023/11/26 16:52:25;;;;;;;30.80;16.40;;;;;;;-2.66;84.64;97985.13;437077;1251;110375;-39
2023/11/26 17:02:32;;;;;;;40.80;19.80;;;;;;;-2.79;84.80;97988.24;436438;1251;108132;-39
2023/11/26 17:12:38;;;;;;;28.40;17.40;;;;;;;-2.83;84.69;97978.30;436422;1247;97467;-39
2023/11/26 17:22:45;;;;;;;27.80;15.30;;;;;;;-2.82;84.91;97987.59;436487;1251;111431;-39
2023/11/26 17:32:52;;;;;;;55.30;25.00;;;;;;;-2.78;85.08;97991.41;436916;1251;107644;-38
2023/11/26 17:42:59;;;;;;;35.30;15.50;;;;;;;-2.79;85.56;97993.05;437018;1247;97880;-39
2023/11/26 17:53:07;;;;;;;55.90;23.00;;;;;;;-2.87;85.38;97999.52;436532;1251;111517;-40
2023/11/26 18:03:14;;;;;;;51.00;24.70;;;;;;;-3.11;85.37;98003.32;436495;1247;108478;-37
2023/11/26 18:13:22;;;;;;;40.30;20.70;;;;;;;-3.32;85.48;98008.44;436765;1251;97537;-38
2023/11/26 18:23:29;;;;;;;18.80;10.60;;;;;;;-3.21;85.80;98006.90;437668;1248;113901;-39
2023/11/26 18:33:36;;;;;;;13.80;8.40;;;;;;;-2.98;85.89;98005.31;438067;1250;107208;-38
2023/11/26 18:43:44;;;;;;;16.20;8.00;;;;;;;-2.85;86.05;98009.02;437738;1248;97868;-39
2023/11/26 18:53:51;;;;;;;16.30;8.70;;;;;;;-2.86;86.24;98015.87;437638;1250;108573;-41
2023/11/26 19:03:57;;;;;;;18.50;8.80;;;;;;;-2.92;86.38;98010.88;437516;1248;109357;-40
2023/11/26 19:14:04;;;;;;;23.90;11.10;;;;;;;-2.99;86.40;98014.04;437812;1250;97861;-39
2023/11/26 19:24:11;;;;;;;15.50;9.70;;;;;;;-3.11;86.12;98016.79;437316;1250;110735;-40
2023/11/26 19:34:18;;;;;;;20.20;11.00;;;;;;;-3.11;86.16;98016.56;437574;1247;109348;-37
2023/11/26 19:44:26;;;;;;;20.40;10.40;;;;;;;-3.03;86.61;98017.05;437729;1250;97466;-39
2023/11/26 19:54:33;;;;;;;21.10;10.40;;;;;;;-3.04;86.44;98009.02;437599;1250;109383;-39
2023/11/26 20:04:41;;;;;;;39.60;19.70;;;;;;;-3.11;86.50;98015.23;437668;1250;108192;-39
2023/11/26 20:14:48;;;;;;;21.70;11.60;;;;;;;-3.16;86.51;98013.97;437984;1248;97855;-40
2023/11/26 20:24:54;;;;;;;24.70;15.00;;;;;;;-3.14;86.52;98014.48;437580;1246;108567;-38
2023/11/26 20:34:59;;;;;;;20.10;13.30;;;;;;;-3.00;86.63;98011.01;437577;1248;107277;-39
2023/11/26 20:45:09;;;;;;;35.80;17.50;;;;;;;-2.90;86.66;98006.10;437629;1250;97521;-40
2023/11/26 20:55:17;;;;;;;36.30;20.30;;;;;;;-2.92;86.63;97992.88;437529;1250;109826;-39
2023/11/26 21:05:24;;;;;;;34.50;19.10;;;;;;;-3.05;86.56;97981.41;437566;1250;107841;-38
2023/11/26 21:15:30;;;;;;;27.30;15.10;;;;;;;-3.16;86.64;97981.13;438087;1250;98033;-39
2023/11/26 21:25:40;;;;;;;31.00;17.90;;;;;;;-3.18;86.53;97978.67;437565;1248;111669;-38
2023/11/26 21:35:46;;;;;;;33.80;18.10;;;;;;;-3.07;86.37;97980.83;437628;1250;107586;-39
2023/11/26 21:45:52;;;;;;;30.90;15.60;;;;;;;-2.97;86.70;97974.11;437631;1247;97785;-39
2023/11/26 22:06:06;;;;;;;29.40;15.60;;;;;;;-3.24;86.44;97965.73;437737;1250;107840;-38
2023/11/26 22:16:14;;;;;;;26.60;13.40;;;;;;;-3.47;86.31;97959.18;437365;1250;107235;-39
2023/11/26 22:26:21;;;;;;;64.80;30.20;;;;;;;-3.76;86.42;97961.27;436706;1251;119540;-39
2023/11/26 22:36:29;;;;;;;31.20;16.00;;;;;;;-3.96;86.22;97961.42;436815;1247;109638;-39
2023/11/26 22:46:37;;;;;;;40.20;21.30;;;;;;;-4.03;86.41;97960.54;436606;1253;98090;-39
2023/11/26 22:56:44;;;;;;;34.00;17.70;;;;;;;-4.10;86.29;97965.86;436816;1252;110941;-39
2023/11/26 23:06:51;;;;;;;46.70;21.50;;;;;;;-4.11;86.88;97963.79;436808;1247;107463;-39
2023/11/26 23:37:09;;;;;;;29.30;17.10;;;;;;;-3.80;87.64;97949.58;436792;1247;108625;-38
2023/11/26 23:47:17;;;;;;;31.10;16.20;;;;;;;-3.57;87.59;97932.30;436838;1247;96568;-39
2023/11/26 23:57:23;;;;;;;38.50;19.30;;;;;;;-3.34;87.78;97932.48;436831;1251;110707;-40
